sensor_id;sensor_type;location;lat;lon;timestamp;temperature;humidity
20349;DHT22;10332;50.208;18.988;2023-06-26T00:02:20;19.80;37.70
20349;DHT22;10332;50.208;18.988;2023-06-26T00:04:47;19.80;38.00
20349;DHT22;10332;50.208;18.988;2023-06-26T00:07:15;19.80;38.20
20349;DHT22;10332;50.208;18.988;2023-06-26T00:09:43;19.70;38.40
20349;DHT22;10332;50.208;18.988;2023-06-26T00:12:10;19.70;38.60
20349;DHT22;10332;50.208;18.988;2023-06-26T00:14:37;19.70;38.90
20349;DHT22;10332;50.208;18.988;2023-06-26T00:17:05;19.70;38.80
20349;DHT22;10332;50.208;18.988;2023-06-26T00:19:32;19.70;38.70
20349;DHT22;10332;50.208;18.988;2023-06-26T00:22:00;19.70;38.80
20349;DHT22;10332;50.208;18.988;2023-06-26T00:24:27;19.60;38.70
20349;DHT22;10332;50.208;18.988;2023-06-26T00:26:54;19.60;38.90
20349;DHT22;10332;50.208;18.988;2023-06-26T00:29:22;19.60;38.90
20349;DHT22;10332;50.208;18.988;2023-06-26T00:31:49;19.60;39.10
20349;DHT22;10332;50.208;18.988;2023-06-26T00:34:17;19.60;39.30
20349;DHT22;10332;50.208;18.988;2023-06-26T00:36:44;19.60;39.30
20349;DHT22;10332;50.208;18.988;2023-06-26T00:39:12;19.60;39.50
20349;DHT22;10332;50.208;18.988;2023-06-26T00:41:40;19.50;39.50
20349;DHT22;10332;50.208;18.988;2023-06-26T00:44:08;19.50;40.00
20349;DHT22;10332;50.208;18.988;2023-06-26T00:46:35;19.50;40.40
20349;DHT22;10332;50.208;18.988;2023-06-26T00:49:03;19.50;40.60
20349;DHT22;10332;50.208;18.988;2023-06-26T00:51:31;19.40;40.80
20349;DHT22;10332;50.208;18.988;2023-06-26T00:54:00;19.40;41.20
20349;DHT22;10332;50.208;18.988;2023-06-26T00:56:29;19.40;41.60
20349;DHT22;10332;50.208;18.988;2023-06-26T00:58:58;19.30;41.80
20349;DHT22;10332;50.208;18.988;2023-06-26T01:01:26;19.30;42.40
20349;DHT22;10332;50.208;18.988;2023-06-26T01:03:53;19.30;42.70
20349;DHT22;10332;50.208;18.988;2023-06-26T01:06:23;19.20;42.70
20349;DHT22;10332;50.208;18.988;2023-06-26T01:08:53;19.20;43.20
20349;DHT22;10332;50.208;18.988;2023-06-26T01:11:20;19.20;43.40
20349;DHT22;10332;50.208;18.988;2023-06-26T01:13:48;19.20;43.80
20349;DHT22;10332;50.208;18.988;2023-06-26T01:16:18;19.10;44.10
20349;DHT22;10332;50.208;18.988;2023-06-26T01:18:47;19.10;45.00
20349;DHT22;10332;50.208;18.988;2023-06-26T01:21:16;19.10;45.60
20349;DHT22;10332;50.208;18.988;2023-06-26T01:24:05;19.10;46.10
20349;DHT22;10332;50.208;18.988;2023-06-26T01:26:42;19.00;46.80
20349;DHT22;10332;50.208;18.988;2023-06-26T01:29:12;19.00;47.20
20349;DHT22;10332;50.208;18.988;2023-06-26T01:31:42;19.00;47.50
20349;DHT22;10332;50.208;18.988;2023-06-26T01:34:17;19.00;48.20
20349;DHT22;10332;50.208;18.988;2023-06-26T01:36:45;18.90;48.00
20349;DHT22;10332;50.208;18.988;2023-06-26T01:39:17;18.90;48.20
20349;DHT22;10332;50.208;18.988;2023-06-26T01:41:45;18.90;48.40
20349;DHT22;10332;50.208;18.988;2023-06-26T01:44:28;18.80;49.00
20349;DHT22;10332;50.208;18.988;2023-06-26T01:47:04;18.80;49.40
20349;DHT22;10332;50.208;18.988;2023-06-26T01:49:47;18.80;50.40
20349;DHT22;10332;50.208;18.988;2023-06-26T01:52:32;18.80;50.80
20349;DHT22;10332;50.208;18.988;2023-06-26T01:55:35;18.80;50.70
20349;DHT22;10332;50.208;18.988;2023-06-26T01:58:09;18.70;50.90
20349;DHT22;10332;50.208;18.988;2023-06-26T02:00:38;18.70;51.60
20349;DHT22;10332;50.208;18.988;2023-06-26T02:03:07;18.70;52.00
20349;DHT22;10332;50.208;18.988;2023-06-26T02:05:35;18.60;53.30
20349;DHT22;10332;50.208;18.988;2023-06-26T02:08:02;18.60;53.30
20349;DHT22;10332;50.208;18.988;2023-06-26T02:10:30;18.50;56.30
20349;DHT22;10332;50.208;18.988;2023-06-26T02:12:58;18.50;55.50
20349;DHT22;10332;50.208;18.988;2023-06-26T02:15:25;18.40;55.50
20349;DHT22;10332;50.208;18.988;2023-06-26T02:17:53;18.40;56.20
20349;DHT22;10332;50.208;18.988;2023-06-26T02:20:20;18.40;55.80
20349;DHT22;10332;50.208;18.988;2023-06-26T02:22:48;18.40;55.80
20349;DHT22;10332;50.208;18.988;2023-06-26T02:25:17;18.40;56.30
20349;DHT22;10332;50.208;18.988;2023-06-26T02:27:44;18.40;55.80
20349;DHT22;10332;50.208;18.988;2023-06-26T02:30:12;18.40;56.30
20349;DHT22;10332;50.208;18.988;2023-06-26T02:32:39;18.30;56.10
20349;DHT22;10332;50.208;18.988;2023-06-26T02:35:07;18.30;56.20
20349;DHT22;10332;50.208;18.988;2023-06-26T02:37:35;18.30;56.30
20349;DHT22;10332;50.208;18.988;2023-06-26T02:40:03;18.30;57.10
20349;DHT22;10332;50.208;18.988;2023-06-26T02:42:32;18.20;57.90
20349;DHT22;10332;50.208;18.988;2023-06-26T02:44:59;18.20;57.40
20349;DHT22;10332;50.208;18.988;2023-06-26T02:47:27;18.20;57.30
20349;DHT22;10332;50.208;18.988;2023-06-26T02:49:54;18.20;57.30
20349;DHT22;10332;50.208;18.988;2023-06-26T02:52:21;18.20;57.30
20349;DHT22;10332;50.208;18.988;2023-06-26T02:54:49;18.20;57.40
20349;DHT22;10332;50.208;18.988;2023-06-26T02:57:16;18.20;57.50
20349;DHT22;10332;50.208;18.988;2023-06-26T02:59:44;18.20;58.60
20349;DHT22;10332;50.208;18.988;2023-06-26T03:02:11;18.10;58.30
20349;DHT22;10332;50.208;18.988;2023-06-26T03:04:39;18.10;59.90
20349;DHT22;10332;50.208;18.988;2023-06-26T03:07:06;18.10;61.80
20349;DHT22;10332;50.208;18.988;2023-06-26T03:09:34;18.00;62.10
20349;DHT22;10332;50.208;18.988;2023-06-26T03:12:01;18.00;63.10
20349;DHT22;10332;50.208;18.988;2023-06-26T03:14:29;17.90;62.70
20349;DHT22;10332;50.208;18.988;2023-06-26T03:16:58;17.90;62.80
20349;DHT22;10332;50.208;18.988;2023-06-26T03:19:30;17.90;64.20
20349;DHT22;10332;50.208;18.988;2023-06-26T03:21:57;17.90;64.10
20349;DHT22;10332;50.208;18.988;2023-06-26T03:24:25;17.90;64.20
20349;DHT22;10332;50.208;18.988;2023-06-26T03:26:52;17.90;64.70
20349;DHT22;10332;50.208;18.988;2023-06-26T03:29:20;17.90;65.50
20349;DHT22;10332;50.208;18.988;2023-06-26T03:31:47;17.90;65.00
20349;DHT22;10332;50.208;18.988;2023-06-26T03:34:15;18.00;64.50
20349;DHT22;10332;50.208;18.988;2023-06-26T03:36:42;18.00;64.40
20349;DHT22;10332;50.208;18.988;2023-06-26T03:39:10;18.00;64.80
20349;DHT22;10332;50.208;18.988;2023-06-26T03:41:37;18.00;65.90
20349;DHT22;10332;50.208;18.988;2023-06-26T03:44:04;18.00;65.50
20349;DHT22;10332;50.208;18.988;2023-06-26T03:46:32;17.90;65.70
20349;DHT22;10332;50.208;18.988;2023-06-26T03:48:59;18.00;68.00
20349;DHT22;10332;50.208;18.988;2023-06-26T03:51:27;18.00;68.50
20349;DHT22;10332;50.208;18.988;2023-06-26T03:53:54;18.00;67.80
20349;DHT22;10332;50.208;18.988;2023-06-26T03:56:22;18.00;67.70
20349;DHT22;10332;50.208;18.988;2023-06-26T03:58:49;18.00;67.10
20349;DHT22;10332;50.208;18.988;2023-06-26T04:01:16;18.00;66.90
20349;DHT22;10332;50.208;18.988;2023-06-26T04:03:44;18.10;67.30
20349;DHT22;10332;50.208;18.988;2023-06-26T04:06:11;18.10;66.70
20349;DHT22;10332;50.208;18.988;2023-06-26T04:08:39;18.20;67.50
20349;DHT22;10332;50.208;18.988;2023-06-26T04:11:06;18.20;67.00
20349;DHT22;10332;50.208;18.988;2023-06-26T04:13:34;18.20;66.70
20349;DHT22;10332;50.208;18.988;2023-06-26T04:16:01;18.20;66.50
20349;DHT22;10332;50.208;18.988;2023-06-26T04:18:29;18.30;66.20
20349;DHT22;10332;50.208;18.988;2023-06-26T04:21:12;18.30;66.80
20349;DHT22;10332;50.208;18.988;2023-06-26T04:23:40;18.30;66.90
20349;DHT22;10332;50.208;18.988;2023-06-26T04:26:08;18.30;67.20
20349;DHT22;10332;50.208;18.988;2023-06-26T04:28:36;18.30;67.10
20349;DHT22;10332;50.208;18.988;2023-06-26T04:31:03;18.30;67.10
20349;DHT22;10332;50.208;18.988;2023-06-26T04:33:32;18.30;68.10
20349;DHT22;10332;50.208;18.988;2023-06-26T04:35:59;18.30;68.00
20349;DHT22;10332;50.208;18.988;2023-06-26T04:38:33;18.30;69.80
20349;DHT22;10332;50.208;18.988;2023-06-26T04:41:02;18.30;70.30
20349;DHT22;10332;50.208;18.988;2023-06-26T04:43:30;18.30;70.20
20349;DHT22;10332;50.208;18.988;2023-06-26T04:45:57;18.30;71.10
20349;DHT22;10332;50.208;18.988;2023-06-26T04:48:25;18.30;70.60
20349;DHT22;10332;50.208;18.988;2023-06-26T04:50:55;18.30;70.10
20349;DHT22;10332;50.208;18.988;2023-06-26T04:53:23;18.40;71.20
20349;DHT22;10332;50.208;18.988;2023-06-26T04:55:51;18.40;70.70
20349;DHT22;10332;50.208;18.988;2023-06-26T04:58:20;18.50;71.10
20349;DHT22;10332;50.208;18.988;2023-06-26T05:00:47;18.50;71.20
20349;DHT22;10332;50.208;18.988;2023-06-26T05:03:16;18.50;70.90
20349;DHT22;10332;50.208;18.988;2023-06-26T05:05:45;18.60;71.70
20349;DHT22;10332;50.208;18.988;2023-06-26T05:08:17;18.60;71.40
20349;DHT22;10332;50.208;18.988;2023-06-26T05:10:49;18.60;71.50
20349;DHT22;10332;50.208;18.988;2023-06-26T05:13:17;18.60;71.40
20349;DHT22;10332;50.208;18.988;2023-06-26T05:15:46;18.60;71.50
20349;DHT22;10332;50.208;18.988;2023-06-26T05:18:14;18.60;71.10
20349;DHT22;10332;50.208;18.988;2023-06-26T05:20:42;18.70;71.00
20349;DHT22;10332;50.208;18.988;2023-06-26T05:23:11;18.70;71.50
20349;DHT22;10332;50.208;18.988;2023-06-26T05:25:40;18.70;70.70
20349;DHT22;10332;50.208;18.988;2023-06-26T05:28:08;18.70;70.30
20349;DHT22;10332;50.208;18.988;2023-06-26T05:30:37;18.80;70.20
20349;DHT22;10332;50.208;18.988;2023-06-26T05:33:06;18.80;70.10
20349;DHT22;10332;50.208;18.988;2023-06-26T05:35:37;18.80;69.90
20349;DHT22;10332;50.208;18.988;2023-06-26T05:38:06;18.80;69.30
20349;DHT22;10332;50.208;18.988;2023-06-26T05:40:34;18.80;69.20
20349;DHT22;10332;50.208;18.988;2023-06-26T05:43:03;18.90;68.80
20349;DHT22;10332;50.208;18.988;2023-06-26T05:45:30;18.80;68.50
20349;DHT22;10332;50.208;18.988;2023-06-26T05:47:58;18.90;68.50
20349;DHT22;10332;50.208;18.988;2023-06-26T05:50:27;18.90;68.80
20349;DHT22;10332;50.208;18.988;2023-06-26T05:52:55;19.00;68.20
20349;DHT22;10332;50.208;18.988;2023-06-26T05:55:23;19.00;67.60
20349;DHT22;10332;50.208;18.988;2023-06-26T05:57:52;19.10;66.80
20349;DHT22;10332;50.208;18.988;2023-06-26T06:00:21;19.20;67.70
20349;DHT22;10332;50.208;18.988;2023-06-26T06:02:48;19.20;67.60
20349;DHT22;10332;50.208;18.988;2023-06-26T06:05:16;19.30;69.00
20349;DHT22;10332;50.208;18.988;2023-06-26T06:07:44;19.30;68.50
20349;DHT22;10332;50.208;18.988;2023-06-26T06:10:11;19.30;68.20
20349;DHT22;10332;50.208;18.988;2023-06-26T06:12:39;19.40;67.30
20349;DHT22;10332;50.208;18.988;2023-06-26T06:15:06;19.40;65.80
20349;DHT22;10332;50.208;18.988;2023-06-26T06:17:35;19.50;65.20
20349;DHT22;10332;50.208;18.988;2023-06-26T06:20:03;19.60;64.80
20349;DHT22;10332;50.208;18.988;2023-06-26T06:22:32;19.70;63.00
20349;DHT22;10332;50.208;18.988;2023-06-26T06:24:59;19.80;62.50
20349;DHT22;10332;50.208;18.988;2023-06-26T06:27:28;19.90;62.00
20349;DHT22;10332;50.208;18.988;2023-06-26T06:29:55;19.90;61.40
20349;DHT22;10332;50.208;18.988;2023-06-26T06:32:23;20.00;60.80
20349;DHT22;10332;50.208;18.988;2023-06-26T06:34:50;20.10;62.90
20349;DHT22;10332;50.208;18.988;2023-06-26T06:37:18;20.20;62.70
20349;DHT22;10332;50.208;18.988;2023-06-26T06:39:45;20.30;61.30
20349;DHT22;10332;50.208;18.988;2023-06-26T06:42:13;20.30;60.80
20349;DHT22;10332;50.208;18.988;2023-06-26T06:44:40;20.40;60.10
20349;DHT22;10332;50.208;18.988;2023-06-26T06:47:08;20.40;59.30
20349;DHT22;10332;50.208;18.988;2023-06-26T06:49:35;20.50;59.80
20349;DHT22;10332;50.208;18.988;2023-06-26T06:52:03;20.60;57.60
20349;DHT22;10332;50.208;18.988;2023-06-26T06:54:30;20.70;57.00
20349;DHT22;10332;50.208;18.988;2023-06-26T06:56:58;20.80;55.20
20349;DHT22;10332;50.208;18.988;2023-06-26T06:59:25;20.90;53.40
20349;DHT22;10332;50.208;18.988;2023-06-26T07:01:53;20.90;53.90
20349;DHT22;10332;50.208;18.988;2023-06-26T07:04:20;20.90;53.00
20349;DHT22;10332;50.208;18.988;2023-06-26T07:06:48;21.00;51.30
20349;DHT22;10332;50.208;18.988;2023-06-26T07:09:15;21.10;50.70
20349;DHT22;10332;50.208;18.988;2023-06-26T07:11:43;21.20;50.20
20349;DHT22;10332;50.208;18.988;2023-06-26T07:14:10;21.20;49.70
20349;DHT22;10332;50.208;18.988;2023-06-26T07:16:37;21.30;47.20
20349;DHT22;10332;50.208;18.988;2023-06-26T07:19:05;21.50;45.90
20349;DHT22;10332;50.208;18.988;2023-06-26T07:21:33;21.50;47.30
20349;DHT22;10332;50.208;18.988;2023-06-26T07:24:00;21.60;45.90
20349;DHT22;10332;50.208;18.988;2023-06-26T07:26:28;21.70;44.30
20349;DHT22;10332;50.208;18.988;2023-06-26T07:29:11;21.80;42.90
20349;DHT22;10332;50.208;18.988;2023-06-26T07:31:38;21.90;39.60
20349;DHT22;10332;50.208;18.988;2023-06-26T07:34:06;22.00;41.20
20349;DHT22;10332;50.208;18.988;2023-06-26T07:36:33;22.10;40.70
20349;DHT22;10332;50.208;18.988;2023-06-26T07:39:01;22.10;40.90
20349;DHT22;10332;50.208;18.988;2023-06-26T07:41:28;22.20;39.50
20349;DHT22;10332;50.208;18.988;2023-06-26T07:43:58;22.30;40.30
20349;DHT22;10332;50.208;18.988;2023-06-26T07:46:26;22.30;42.40
20349;DHT22;10332;50.208;18.988;2023-06-26T07:48:54;22.50;40.20
20349;DHT22;10332;50.208;18.988;2023-06-26T07:51:21;22.60;37.50
20349;DHT22;10332;50.208;18.988;2023-06-26T07:53:49;22.70;36.30
20349;DHT22;10332;50.208;18.988;2023-06-26T07:56:17;22.80;34.10
20349;DHT22;10332;50.208;18.988;2023-06-26T07:58:44;22.90;27.20
20349;DHT22;10332;50.208;18.988;2023-06-26T08:01:12;23.00;24.70
20349;DHT22;10332;50.208;18.988;2023-06-26T08:03:39;23.00;22.90
20349;DHT22;10332;50.208;18.988;2023-06-26T08:06:07;23.10;24.60
20349;DHT22;10332;50.208;18.988;2023-06-26T08:08:38;23.20;24.10
20349;DHT22;10332;50.208;18.988;2023-06-26T08:11:06;23.30;23.30
20349;DHT22;10332;50.208;18.988;2023-06-26T08:13:33;23.50;23.20
20349;DHT22;10332;50.208;18.988;2023-06-26T08:16:01;23.60;17.50
20349;DHT22;10332;50.208;18.988;2023-06-26T08:18:28;23.80;16.60
20349;DHT22;10332;50.208;18.988;2023-06-26T08:20:56;23.90;14.00
20349;DHT22;10332;50.208;18.988;2023-06-26T08:23:23;24.10;10.80
20349;DHT22;10332;50.208;18.988;2023-06-26T08:25:53;24.20;8.80
20349;DHT22;10332;50.208;18.988;2023-06-26T08:28:20;24.20;10.10
20349;DHT22;10332;50.208;18.988;2023-06-26T08:30:48;24.30;9.00
20349;DHT22;10332;50.208;18.988;2023-06-26T08:33:15;24.50;5.70
20349;DHT22;10332;50.208;18.988;2023-06-26T08:35:43;24.70;1.10
20349;DHT22;10332;50.208;18.988;2023-06-26T08:38:10;25.00;1.00
20349;DHT22;10332;50.208;18.988;2023-06-26T08:40:38;25.10;1.00
20349;DHT22;10332;50.208;18.988;2023-06-26T08:43:06;25.20;1.00
20349;DHT22;10332;50.208;18.988;2023-06-26T08:45:33;25.30;1.00
20349;DHT22;10332;50.208;18.988;2023-06-26T08:48:01;25.30;1.00
20349;DHT22;10332;50.208;18.988;2023-06-26T08:50:34;25.40;1.00
20349;DHT22;10332;50.208;18.988;2023-06-26T08:53:43;25.40;1.00
20349;DHT22;10332;50.208;18.988;2023-06-26T08:56:22;25.40;1.00
20349;DHT22;10332;50.208;18.988;2023-06-26T08:59:09;25.30;1.00
20349;DHT22;10332;50.208;18.988;2023-06-26T09:01:42;25.30;1.00
20349;DHT22;10332;50.208;18.988;2023-06-26T09:04:10;25.40;1.00
20349;DHT22;10332;50.208;18.988;2023-06-26T09:06:45;25.40;1.00
20349;DHT22;10332;50.208;18.988;2023-06-26T09:09:17;25.60;1.00
20349;DHT22;10332;50.208;18.988;2023-06-26T09:11:45;25.90;1.00
20349;DHT22;10332;50.208;18.988;2023-06-26T09:14:13;26.20;1.00
20349;DHT22;10332;50.208;18.988;2023-06-26T09:16:42;26.50;1.00
20349;DHT22;10332;50.208;18.988;2023-06-26T09:19:10;26.80;1.00
20349;DHT22;10332;50.208;18.988;2023-06-26T09:21:40;27.10;1.00
20349;DHT22;10332;50.208;18.988;2023-06-26T09:24:10;27.20;1.00
20349;DHT22;10332;50.208;18.988;2023-06-26T09:26:39;27.40;1.00
20349;DHT22;10332;50.208;18.988;2023-06-26T09:29:08;27.60;1.00
20349;DHT22;10332;50.208;18.988;2023-06-26T09:31:37;27.70;1.00
20349;DHT22;10332;50.208;18.988;2023-06-26T09:34:09;27.60;1.00
20349;DHT22;10332;50.208;18.988;2023-06-26T09:36:37;27.70;1.00
20349;DHT22;10332;50.208;18.988;2023-06-26T09:39:08;27.70;1.00
20349;DHT22;10332;50.208;18.988;2023-06-26T09:41:42;27.50;1.00
20349;DHT22;10332;50.208;18.988;2023-06-26T09:44:14;27.50;1.00
20349;DHT22;10332;50.208;18.988;2023-06-26T09:46:45;27.40;1.00
20349;DHT22;10332;50.208;18.988;2023-06-26T09:49:13;27.30;1.00
20349;DHT22;10332;50.208;18.988;2023-06-26T09:51:42;27.30;1.00
20349;DHT22;10332;50.208;18.988;2023-06-26T09:54:10;27.30;1.00
20349;DHT22;10332;50.208;18.988;2023-06-26T09:56:37;27.40;1.00
20349;DHT22;10332;50.208;18.988;2023-06-26T09:59:06;27.60;1.00
20349;DHT22;10332;50.208;18.988;2023-06-26T10:01:40;27.70;1.00
20349;DHT22;10332;50.208;18.988;2023-06-26T10:04:09;27.90;1.00
20349;DHT22;10332;50.208;18.988;2023-06-26T10:06:41;28.00;1.00
20349;DHT22;10332;50.208;18.988;2023-06-26T10:09:19;28.10;1.00
20349;DHT22;10332;50.208;18.988;2023-06-26T10:14:34;28.30;1.00
20349;DHT22;10332;50.208;18.988;2023-06-26T10:17:09;28.30;1.00
20349;DHT22;10332;50.208;18.988;2023-06-26T10:19:40;28.20;1.00
20349;DHT22;10332;50.208;18.988;2023-06-26T10:22:16;28.10;1.00
20349;DHT22;10332;50.208;18.988;2023-06-26T10:24:48;28.00;1.00
20349;DHT22;10332;50.208;18.988;2023-06-26T10:27:19;27.90;1.00
20349;DHT22;10332;50.208;18.988;2023-06-26T10:29:58;27.80;1.00
20349;DHT22;10332;50.208;18.988;2023-06-26T10:32:30;27.60;1.00
20349;DHT22;10332;50.208;18.988;2023-06-26T10:34:59;27.50;1.00
20349;DHT22;10332;50.208;18.988;2023-06-26T10:37:45;27.50;1.00
20349;DHT22;10332;50.208;18.988;2023-06-26T10:40:21;27.50;1.00
20349;DHT22;10332;50.208;18.988;2023-06-26T10:43:05;27.60;1.00
20349;DHT22;10332;50.208;18.988;2023-06-26T10:45:36;27.60;1.00
20349;DHT22;10332;50.208;18.988;2023-06-26T10:48:09;27.70;1.00
20349;DHT22;10332;50.208;18.988;2023-06-26T10:50:37;27.70;1.00
20349;DHT22;10332;50.208;18.988;2023-06-26T10:56:09;27.60;1.00
20349;DHT22;10332;50.208;18.988;2023-06-26T10:58:41;27.60;1.00
20349;DHT22;10332;50.208;18.988;2023-06-26T11:04:01;27.70;1.00
20349;DHT22;10332;50.208;18.988;2023-06-26T11:06:32;27.60;1.00
20349;DHT22;10332;50.208;18.988;2023-06-26T11:14:23;28.00;1.00
20349;DHT22;10332;50.208;18.988;2023-06-26T11:16:51;28.10;1.00
20349;DHT22;10332;50.208;18.988;2023-06-26T11:19:20;28.20;1.00
20349;DHT22;10332;50.208;18.988;2023-06-26T11:21:47;28.30;1.00
20349;DHT22;10332;50.208;18.988;2023-06-26T11:24:16;28.40;1.00
20349;DHT22;10332;50.208;18.988;2023-06-26T11:26:44;28.40;1.00
20349;DHT22;10332;50.208;18.988;2023-06-26T11:29:13;28.30;1.00
20349;DHT22;10332;50.208;18.988;2023-06-26T11:31:42;28.30;1.00
20349;DHT22;10332;50.208;18.988;2023-06-26T11:34:11;28.40;1.00
20349;DHT22;10332;50.208;18.988;2023-06-26T11:36:42;28.40;1.00
20349;DHT22;10332;50.208;18.988;2023-06-26T11:39:12;28.50;1.00
20349;DHT22;10332;50.208;18.988;2023-06-26T11:41:40;28.60;1.00
20349;DHT22;10332;50.208;18.988;2023-06-26T11:44:10;28.60;1.00
20349;DHT22;10332;50.208;18.988;2023-06-26T11:46:38;28.60;1.00
20349;DHT22;10332;50.208;18.988;2023-06-26T11:49:08;28.50;1.00
20349;DHT22;10332;50.208;18.988;2023-06-26T11:51:36;28.50;1.00
20349;DHT22;10332;50.208;18.988;2023-06-26T11:54:04;28.50;1.00
20349;DHT22;10332;50.208;18.988;2023-06-26T11:56:32;28.50;1.00
20349;DHT22;10332;50.208;18.988;2023-06-26T11:59:05;28.50;1.00
20349;DHT22;10332;50.208;18.988;2023-06-26T12:01:41;28.50;1.00
20349;DHT22;10332;50.208;18.988;2023-06-26T12:04:16;28.50;1.00
20349;DHT22;10332;50.208;18.988;2023-06-26T12:06:49;28.40;1.00
20349;DHT22;10332;50.208;18.988;2023-06-26T12:09:19;28.40;1.00
20349;DHT22;10332;50.208;18.988;2023-06-26T12:11:50;28.50;1.00
20349;DHT22;10332;50.208;18.988;2023-06-26T12:14:21;28.60;1.00
20349;DHT22;10332;50.208;18.988;2023-06-26T12:16:49;28.70;1.00
20349;DHT22;10332;50.208;18.988;2023-06-26T12:19:17;28.80;1.00
20349;DHT22;10332;50.208;18.988;2023-06-26T12:21:50;28.70;1.00
20349;DHT22;10332;50.208;18.988;2023-06-26T12:24:21;28.80;1.00
20349;DHT22;10332;50.208;18.988;2023-06-26T12:26:54;28.90;1.00
20349;DHT22;10332;50.208;18.988;2023-06-26T12:29:33;28.80;1.00
20349;DHT22;10332;50.208;18.988;2023-06-26T12:32:01;28.60;1.00
20349;DHT22;10332;50.208;18.988;2023-06-26T12:34:34;28.60;1.00
20349;DHT22;10332;50.208;18.988;2023-06-26T12:37:08;28.70;1.00
20349;DHT22;10332;50.208;18.988;2023-06-26T12:39:51;28.90;1.00
20349;DHT22;10332;50.208;18.988;2023-06-26T12:42:26;29.10;1.00
20349;DHT22;10332;50.208;18.988;2023-06-26T12:44:55;29.20;1.00
20349;DHT22;10332;50.208;18.988;2023-06-26T12:47:28;29.40;1.00
20349;DHT22;10332;50.208;18.988;2023-06-26T12:49:58;29.50;1.00
20349;DHT22;10332;50.208;18.988;2023-06-26T12:52:26;29.60;1.00
20349;DHT22;10332;50.208;18.988;2023-06-26T12:54:54;29.70;1.00
20349;DHT22;10332;50.208;18.988;2023-06-26T12:57:23;29.60;1.00
20349;DHT22;10332;50.208;18.988;2023-06-26T12:59:51;29.40;1.00
20349;DHT22;10332;50.208;18.988;2023-06-26T13:02:19;29.20;1.00
20349;DHT22;10332;50.208;18.988;2023-06-26T13:04:47;29.10;1.00
20349;DHT22;10332;50.208;18.988;2023-06-26T13:07:15;29.20;1.00
20349;DHT22;10332;50.208;18.988;2023-06-26T13:09:43;29.30;1.00
20349;DHT22;10332;50.208;18.988;2023-06-26T13:12:12;29.50;1.00
20349;DHT22;10332;50.208;18.988;2023-06-26T13:14:40;29.70;1.00
20349;DHT22;10332;50.208;18.988;2023-06-26T13:17:07;29.80;1.00
20349;DHT22;10332;50.208;18.988;2023-06-26T13:19:36;29.90;1.00
20349;DHT22;10332;50.208;18.988;2023-06-26T13:22:04;30.00;1.00
20349;DHT22;10332;50.208;18.988;2023-06-26T13:24:31;30.00;1.00
20349;DHT22;10332;50.208;18.988;2023-06-26T13:26:59;30.00;1.00
20349;DHT22;10332;50.208;18.988;2023-06-26T13:29:26;29.70;1.00
20349;DHT22;10332;50.208;18.988;2023-06-26T13:31:53;29.60;1.00
20349;DHT22;10332;50.208;18.988;2023-06-26T13:34:22;29.60;1.00
20349;DHT22;10332;50.208;18.988;2023-06-26T13:36:51;29.50;1.00
20349;DHT22;10332;50.208;18.988;2023-06-26T13:39:18;29.30;1.00
20349;DHT22;10332;50.208;18.988;2023-06-26T13:41:46;29.20;1.00
20349;DHT22;10332;50.208;18.988;2023-06-26T13:44:13;29.00;1.00
20349;DHT22;10332;50.208;18.988;2023-06-26T13:47:01;29.00;1.00
20349;DHT22;10332;50.208;18.988;2023-06-26T13:49:29;29.00;1.00
20349;DHT22;10332;50.208;18.988;2023-06-26T13:51:56;29.00;1.00
20349;DHT22;10332;50.208;18.988;2023-06-26T13:54:24;28.90;1.00
20349;DHT22;10332;50.208;18.988;2023-06-26T13:56:51;28.80;1.00
20349;DHT22;10332;50.208;18.988;2023-06-26T13:59:19;28.80;1.00
20349;DHT22;10332;50.208;18.988;2023-06-26T14:01:48;28.70;1.00
20349;DHT22;10332;50.208;18.988;2023-06-26T14:04:16;28.70;1.00
20349;DHT22;10332;50.208;18.988;2023-06-26T14:06:44;28.70;1.00
20349;DHT22;10332;50.208;18.988;2023-06-26T14:09:12;28.70;1.00
20349;DHT22;10332;50.208;18.988;2023-06-26T14:11:40;28.80;1.00
20349;DHT22;10332;50.208;18.988;2023-06-26T14:14:07;28.90;1.00
20349;DHT22;10332;50.208;18.988;2023-06-26T14:16:35;28.90;1.00
20349;DHT22;10332;50.208;18.988;2023-06-26T14:19:03;28.90;1.00
20349;DHT22;10332;50.208;18.988;2023-06-26T14:21:31;28.80;1.00
20349;DHT22;10332;50.208;18.988;2023-06-26T14:24:00;28.70;1.00
20349;DHT22;10332;50.208;18.988;2023-06-26T14:26:29;28.70;1.00
20349;DHT22;10332;50.208;18.988;2023-06-26T14:28:57;28.60;1.00
20349;DHT22;10332;50.208;18.988;2023-06-26T14:31:24;28.60;1.00
20349;DHT22;10332;50.208;18.988;2023-06-26T14:33:52;28.50;1.00
20349;DHT22;10332;50.208;18.988;2023-06-26T14:36:20;28.50;1.00
20349;DHT22;10332;50.208;18.988;2023-06-26T14:38:47;28.50;1.00
20349;DHT22;10332;50.208;18.988;2023-06-26T14:41:15;28.50;1.00
20349;DHT22;10332;50.208;18.988;2023-06-26T14:43:43;28.40;1.00
20349;DHT22;10332;50.208;18.988;2023-06-26T14:46:13;28.30;1.00
20349;DHT22;10332;50.208;18.988;2023-06-26T14:48:40;28.30;1.00
20349;DHT22;10332;50.208;18.988;2023-06-26T14:51:08;28.30;1.00
20349;DHT22;10332;50.208;18.988;2023-06-26T14:53:35;28.20;1.00
20349;DHT22;10332;50.208;18.988;2023-06-26T14:56:03;28.10;1.00
20349;DHT22;10332;50.208;18.988;2023-06-26T14:58:32;28.00;1.00
20349;DHT22;10332;50.208;18.988;2023-06-26T15:01:00;27.90;1.00
20349;DHT22;10332;50.208;18.988;2023-06-26T15:03:27;27.80;1.00
20349;DHT22;10332;50.208;18.988;2023-06-26T15:05:55;27.80;1.00
20349;DHT22;10332;50.208;18.988;2023-06-26T15:08:22;27.80;1.00
20349;DHT22;10332;50.208;18.988;2023-06-26T15:10:50;28.00;1.00
20349;DHT22;10332;50.208;18.988;2023-06-26T15:13:17;28.00;1.00
20349;DHT22;10332;50.208;18.988;2023-06-26T15:15:45;28.00;1.00
20349;DHT22;10332;50.208;18.988;2023-06-26T15:18:12;28.00;1.00
20349;DHT22;10332;50.208;18.988;2023-06-26T15:20:40;27.90;1.00
20349;DHT22;10332;50.208;18.988;2023-06-26T15:23:08;27.90;1.00
20349;DHT22;10332;50.208;18.988;2023-06-26T15:25:35;27.90;1.00
20349;DHT22;10332;50.208;18.988;2023-06-26T15:28:04;27.80;1.00
20349;DHT22;10332;50.208;18.988;2023-06-26T15:30:32;27.70;1.00
20349;DHT22;10332;50.208;18.988;2023-06-26T15:33:00;27.70;1.00
20349;DHT22;10332;50.208;18.988;2023-06-26T15:35:28;27.70;1.00
20349;DHT22;10332;50.208;18.988;2023-06-26T15:37:56;27.70;1.00
20349;DHT22;10332;50.208;18.988;2023-06-26T15:40:23;27.70;1.00
20349;DHT22;10332;50.208;18.988;2023-06-26T15:42:51;27.70;1.00
20349;DHT22;10332;50.208;18.988;2023-06-26T15:45:22;27.70;1.00
20349;DHT22;10332;50.208;18.988;2023-06-26T15:47:53;27.60;1.00
20349;DHT22;10332;50.208;18.988;2023-06-26T15:50:20;27.60;1.00